sensor_id;sensor_type;location;lat;lon;timestamp;P1;durP1;ratioP1;P2;durP2;ratioP2
305;SDS011;137;48.578;9.180;2022-12-05T00:00:01;9.33;;;7.40;;
305;SDS011;137;48.578;9.180;2022-12-05T00:02:28;11.77;;;7.93;;
305;SDS011;137;48.578;9.180;2022-12-05T00:04:55;11.20;;;8.00;;
305;SDS011;137;48.578;9.180;2022-12-05T00:07:23;14.87;;;7.73;;
305;SDS011;137;48.578;9.180;2022-12-05T00:09:50;12.93;;;8.00;;
305;SDS011;137;48.578;9.180;2022-12-05T00:12:20;12.00;;;8.80;;
305;SDS011;137;48.578;9.180;2022-12-05T00:14:47;10.33;;;7.03;;
305;SDS011;137;48.578;9.180;2022-12-05T00:17:13;10.80;;;7.77;;
305;SDS011;137;48.578;9.180;2022-12-05T00:19:40;15.80;;;8.83;;
305;SDS011;137;48.578;9.180;2022-12-05T00:22:07;11.37;;;7.50;;
305;SDS011;137;48.578;9.180;2022-12-05T00:24:35;9.90;;;6.90;;
305;SDS011;137;48.578;9.180;2022-12-05T00:27:02;12.33;;;8.67;;
305;SDS011;137;48.578;9.180;2022-12-05T00:29:29;13.00;;;9.00;;
305;SDS011;137;48.578;9.180;2022-12-05T00:31:56;17.00;;;10.00;;
305;SDS011;137;48.578;9.180;2022-12-05T00:34:23;11.93;;;9.57;;
305;SDS011;137;48.578;9.180;2022-12-05T00:36:50;15.10;;;8.43;;
305;SDS011;137;48.578;9.180;2022-12-05T00:39:18;12.03;;;7.77;;
305;SDS011;137;48.578;9.180;2022-12-05T00:41:46;17.27;;;8.67;;
305;SDS011;137;48.578;9.180;2022-12-05T00:44:13;11.50;;;8.23;;
305;SDS011;137;48.578;9.180;2022-12-05T00:46:39;12.50;;;8.50;;
305;SDS011;137;48.578;9.180;2022-12-05T00:49:07;11.47;;;8.47;;
305;SDS011;137;48.578;9.180;2022-12-05T00:51:36;11.70;;;8.27;;
305;SDS011;137;48.578;9.180;2022-12-05T00:54:05;15.20;;;8.43;;
305;SDS011;137;48.578;9.180;2022-12-05T00:56:34;13.60;;;7.53;;
305;SDS011;137;48.578;9.180;2022-12-05T00:59:03;12.13;;;8.37;;
305;SDS011;137;48.578;9.180;2022-12-05T01:01:31;11.23;;;7.53;;
305;SDS011;137;48.578;9.180;2022-12-05T01:04:01;10.03;;;7.30;;
305;SDS011;137;48.578;9.180;2022-12-05T01:06:29;12.13;;;8.03;;
305;SDS011;137;48.578;9.180;2022-12-05T01:08:56;14.23;;;9.03;;
305;SDS011;137;48.578;9.180;2022-12-05T01:11:23;11.47;;;8.07;;
305;SDS011;137;48.578;9.180;2022-12-05T01:13:51;13.73;;;8.63;;
305;SDS011;137;48.578;9.180;2022-12-05T01:16:21;11.30;;;7.67;;
305;SDS011;137;48.578;9.180;2022-12-05T01:18:51;14.10;;;8.17;;
305;SDS011;137;48.578;9.180;2022-12-05T01:21:19;14.07;;;9.30;;
305;SDS011;137;48.578;9.180;2022-12-05T01:23:46;12.87;;;9.90;;
305;SDS011;137;48.578;9.180;2022-12-05T01:26:14;17.00;;;10.00;;
305;SDS011;137;48.578;9.180;2022-12-05T01:28:42;16.90;;;10.27;;
305;SDS011;137;48.578;9.180;2022-12-05T01:31:11;16.50;;;10.47;;
305;SDS011;137;48.578;9.180;2022-12-05T01:33:45;13.67;;;8.73;;
305;SDS011;137;48.578;9.180;2022-12-05T01:36:12;13.63;;;8.47;;
305;SDS011;137;48.578;9.180;2022-12-05T01:38:39;13.47;;;9.20;;
305;SDS011;137;48.578;9.180;2022-12-05T01:41:08;18.03;;;10.93;;
305;SDS011;137;48.578;9.180;2022-12-05T01:43:51;15.30;;;9.73;;
305;SDS011;137;48.578;9.180;2022-12-05T01:46:22;13.50;;;9.13;;
305;SDS011;137;48.578;9.180;2022-12-05T01:48:51;15.13;;;8.67;;
305;SDS011;137;48.578;9.180;2022-12-05T01:51:21;13.63;;;8.50;;
305;SDS011;137;48.578;9.180;2022-12-05T01:53:49;13.50;;;8.97;;
305;SDS011;137;48.578;9.180;2022-12-05T01:56:17;16.17;;;9.00;;
305;SDS011;137;48.578;9.180;2022-12-05T01:58:45;13.93;;;8.80;;
305;SDS011;137;48.578;9.180;2022-12-05T02:01:13;13.17;;;8.77;;
305;SDS011;137;48.578;9.180;2022-12-05T02:03:41;14.63;;;9.23;;
305;SDS011;137;48.578;9.180;2022-12-05T02:06:12;14.30;;;9.73;;
305;SDS011;137;48.578;9.180;2022-12-05T02:08:40;14.90;;;9.40;;
305;SDS011;137;48.578;9.180;2022-12-05T02:11:07;14.23;;;10.10;;
305;SDS011;137;48.578;9.180;2022-12-05T02:16:38;15.07;;;10.10;;
305;SDS011;137;48.578;9.180;2022-12-05T02:19:30;16.70;;;10.07;;
305;SDS011;137;48.578;9.180;2022-12-05T02:22:26;16.93;;;10.40;;
305;SDS011;137;48.578;9.180;2022-12-05T02:25:25;18.23;;;10.50;;
305;SDS011;137;48.578;9.180;2022-12-05T02:28:16;16.73;;;8.97;;
305;SDS011;137;48.578;9.180;2022-12-05T02:30:58;17.60;;;9.03;;
305;SDS011;137;48.578;9.180;2022-12-05T02:33:33;18.10;;;10.33;;
305;SDS011;137;48.578;9.180;2022-12-05T02:36:06;14.17;;;10.47;;
305;SDS011;137;48.578;9.180;2022-12-05T02:38:38;19.10;;;11.23;;
305;SDS011;137;48.578;9.180;2022-12-05T02:41:11;19.33;;;10.47;;
305;SDS011;137;48.578;9.180;2022-12-05T02:43:47;15.03;;;9.63;;
305;SDS011;137;48.578;9.180;2022-12-05T02:46:20;18.50;;;10.50;;
305;SDS011;137;48.578;9.180;2022-12-05T02:48:49;14.63;;;9.50;;
305;SDS011;137;48.578;9.180;2022-12-05T02:51:20;18.90;;;11.30;;
305;SDS011;137;48.578;9.180;2022-12-05T02:53:50;17.93;;;10.33;;
305;SDS011;137;48.578;9.180;2022-12-05T02:56:18;18.63;;;12.03;;
305;SDS011;137;48.578;9.180;2022-12-05T02:58:47;17.60;;;9.90;;
305;SDS011;137;48.578;9.180;2022-12-05T03:01:19;15.30;;;8.90;;
305;SDS011;137;48.578;9.180;2022-12-05T03:03:48;17.03;;;10.10;;
305;SDS011;137;48.578;9.180;2022-12-05T03:06:17;13.43;;;9.43;;
305;SDS011;137;48.578;9.180;2022-12-05T03:08:47;15.73;;;9.00;;
305;SDS011;137;48.578;9.180;2022-12-05T03:11:19;17.40;;;10.40;;
305;SDS011;137;48.578;9.180;2022-12-05T03:13:47;17.30;;;10.70;;
305;SDS011;137;48.578;9.180;2022-12-05T03:16:17;17.17;;;9.37;;
305;SDS011;137;48.578;9.180;2022-12-05T03:18:49;19.60;;;10.10;;
305;SDS011;137;48.578;9.180;2022-12-05T03:21:21;15.80;;;9.60;;
305;SDS011;137;48.578;9.180;2022-12-05T03:23:56;13.73;;;8.07;;
305;SDS011;137;48.578;9.180;2022-12-05T03:26:35;15.57;;;10.07;;
305;SDS011;137;48.578;9.180;2022-12-05T03:29:09;16.67;;;8.63;;
305;SDS011;137;48.578;9.180;2022-12-05T03:31:53;20.43;;;11.33;;
305;SDS011;137;48.578;9.180;2022-12-05T03:34:31;16.43;;;9.57;;
305;SDS011;137;48.578;9.180;2022-12-05T03:37:08;17.13;;;9.70;;
305;SDS011;137;48.578;9.180;2022-12-05T03:39:40;11.50;;;9.20;;
305;SDS011;137;48.578;9.180;2022-12-05T03:42:15;17.67;;;9.20;;
305;SDS011;137;48.578;9.180;2022-12-05T03:44:47;15.00;;;8.10;;
305;SDS011;137;48.578;9.180;2022-12-05T03:47:22;14.93;;;9.20;;
305;SDS011;137;48.578;9.180;2022-12-05T03:49:58;12.00;;;8.10;;
305;SDS011;137;48.578;9.180;2022-12-05T03:52:31;18.73;;;9.67;;
305;SDS011;137;48.578;9.180;2022-12-05T03:55:04;13.70;;;9.47;;
305;SDS011;137;48.578;9.180;2022-12-05T03:57:34;13.83;;;9.60;;
305;SDS011;137;48.578;9.180;2022-12-05T04:00:08;16.53;;;10.47;;
305;SDS011;137;48.578;9.180;2022-12-05T04:02:40;20.03;;;9.70;;
305;SDS011;137;48.578;9.180;2022-12-05T04:05:12;14.97;;;8.60;;
305;SDS011;137;48.578;9.180;2022-12-05T04:07:44;14.37;;;9.60;;
305;SDS011;137;48.578;9.180;2022-12-05T04:10:15;11.97;;;9.23;;
305;SDS011;137;48.578;9.180;2022-12-05T04:12:45;20.73;;;9.90;;
305;SDS011;137;48.578;9.180;2022-12-05T04:15:16;11.97;;;7.63;;
305;SDS011;137;48.578;9.180;2022-12-05T04:17:49;13.40;;;8.60;;
305;SDS011;137;48.578;9.180;2022-12-05T04:20:20;12.83;;;7.57;;
305;SDS011;137;48.578;9.180;2022-12-05T04:23:09;13.67;;;8.10;;
305;SDS011;137;48.578;9.180;2022-12-05T04:25:37;11.63;;;8.53;;
305;SDS011;137;48.578;9.180;2022-12-05T04:28:18;12.60;;;9.70;;
305;SDS011;137;48.578;9.180;2022-12-05T04:30:53;15.90;;;8.60;;
305;SDS011;137;48.578;9.180;2022-12-05T04:33:28;18.87;;;10.87;;
305;SDS011;137;48.578;9.180;2022-12-05T04:36:01;15.53;;;8.80;;
305;SDS011;137;48.578;9.180;2022-12-05T04:38:31;11.70;;;8.20;;
305;SDS011;137;48.578;9.180;2022-12-05T04:41:05;14.63;;;8.57;;
305;SDS011;137;48.578;9.180;2022-12-05T04:43:37;12.53;;;8.40;;
305;SDS011;137;48.578;9.180;2022-12-05T04:46:07;11.97;;;8.67;;
305;SDS011;137;48.578;9.180;2022-12-05T04:48:38;15.80;;;8.87;;
305;SDS011;137;48.578;9.180;2022-12-05T04:51:11;11.53;;;8.17;;
305;SDS011;137;48.578;9.180;2022-12-05T04:53:41;13.90;;;9.10;;
305;SDS011;137;48.578;9.180;2022-12-05T04:56:10;16.10;;;9.40;;
305;SDS011;137;48.578;9.180;2022-12-05T04:58:39;13.03;;;7.27;;
305;SDS011;137;48.578;9.180;2022-12-05T05:01:08;14.33;;;8.57;;
305;SDS011;137;48.578;9.180;2022-12-05T05:03:41;12.80;;;8.83;;
305;SDS011;137;48.578;9.180;2022-12-05T05:06:11;16.40;;;8.90;;
305;SDS011;137;48.578;9.180;2022-12-05T05:08:45;12.70;;;7.93;;
305;SDS011;137;48.578;9.180;2022-12-05T05:11:14;15.20;;;10.53;;
305;SDS011;137;48.578;9.180;2022-12-05T05:13:43;12.43;;;8.63;;
305;SDS011;137;48.578;9.180;2022-12-05T05:16:12;15.00;;;10.43;;
305;SDS011;137;48.578;9.180;2022-12-05T05:18:43;13.60;;;8.50;;
305;SDS011;137;48.578;9.180;2022-12-05T05:21:17;14.13;;;10.10;;
305;SDS011;137;48.578;9.180;2022-12-05T05:23:46;13.33;;;9.10;;
305;SDS011;137;48.578;9.180;2022-12-05T05:26:13;19.23;;;10.73;;
305;SDS011;137;48.578;9.180;2022-12-05T05:28:40;13.07;;;10.40;;
305;SDS011;137;48.578;9.180;2022-12-05T05:31:07;16.30;;;12.80;;
305;SDS011;137;48.578;9.180;2022-12-05T05:33:34;20.90;;;15.50;;
305;SDS011;137;48.578;9.180;2022-12-05T05:36:04;19.40;;;14.90;;
305;SDS011;137;48.578;9.180;2022-12-05T05:38:34;15.50;;;11.67;;
305;SDS011;137;48.578;9.180;2022-12-05T05:41:02;15.90;;;11.83;;
305;SDS011;137;48.578;9.180;2022-12-05T05:43:29;13.03;;;9.50;;
305;SDS011;137;48.578;9.180;2022-12-05T05:45:56;13.77;;;8.60;;
305;SDS011;137;48.578;9.180;2022-12-05T05:48:23;14.60;;;9.10;;
305;SDS011;137;48.578;9.180;2022-12-05T05:50:50;17.23;;;10.53;;
305;SDS011;137;48.578;9.180;2022-12-05T05:53:18;22.00;;;11.10;;
305;SDS011;137;48.578;9.180;2022-12-05T05:55:45;22.33;;;12.93;;
305;SDS011;137;48.578;9.180;2022-12-05T05:58:12;22.07;;;14.33;;
305;SDS011;137;48.578;9.180;2022-12-05T06:00:38;16.50;;;10.97;;
305;SDS011;137;48.578;9.180;2022-12-05T06:03:05;22.43;;;12.40;;
305;SDS011;137;48.578;9.180;2022-12-05T06:05:32;17.83;;;11.77;;
305;SDS011;137;48.578;9.180;2022-12-05T06:07:59;15.63;;;11.33;;
305;SDS011;137;48.578;9.180;2022-12-05T06:10:27;14.53;;;11.43;;
305;SDS011;137;48.578;9.180;2022-12-05T06:12:54;16.80;;;10.60;;
305;SDS011;137;48.578;9.180;2022-12-05T06:15:21;20.10;;;11.20;;
305;SDS011;137;48.578;9.180;2022-12-05T06:17:48;14.37;;;10.90;;
305;SDS011;137;48.578;9.180;2022-12-05T06:20:15;16.07;;;11.43;;
305;SDS011;137;48.578;9.180;2022-12-05T06:22:42;11.83;;;9.67;;
305;SDS011;137;48.578;9.180;2022-12-05T06:25:09;16.43;;;11.50;;
305;SDS011;137;48.578;9.180;2022-12-05T06:27:37;17.90;;;11.70;;
305;SDS011;137;48.578;9.180;2022-12-05T06:30:04;19.13;;;12.40;;
305;SDS011;137;48.578;9.180;2022-12-05T06:32:32;15.17;;;12.83;;
305;SDS011;137;48.578;9.180;2022-12-05T06:34:58;26.30;;;15.80;;
305;SDS011;137;48.578;9.180;2022-12-05T06:37:34;19.40;;;12.43;;
305;SDS011;137;48.578;9.180;2022-12-05T06:40:01;21.87;;;12.70;;
305;SDS011;137;48.578;9.180;2022-12-05T06:42:29;17.63;;;11.10;;
305;SDS011;137;48.578;9.180;2022-12-05T06:44:57;18.20;;;11.70;;
305;SDS011;137;48.578;9.180;2022-12-05T06:47:24;15.80;;;10.80;;
305;SDS011;137;48.578;9.180;2022-12-05T06:49:51;16.40;;;9.70;;
305;SDS011;137;48.578;9.180;2022-12-05T06:52:18;14.73;;;9.60;;
305;SDS011;137;48.578;9.180;2022-12-05T06:54:45;14.97;;;8.80;;
305;SDS011;137;48.578;9.180;2022-12-05T06:57:11;11.30;;;7.80;;
305;SDS011;137;48.578;9.180;2022-12-05T06:59:39;11.90;;;9.73;;
305;SDS011;137;48.578;9.180;2022-12-05T07:02:07;16.17;;;11.37;;
305;SDS011;137;48.578;9.180;2022-12-05T07:04:34;15.87;;;11.07;;
305;SDS011;137;48.578;9.180;2022-12-05T07:07:01;21.37;;;10.83;;
305;SDS011;137;48.578;9.180;2022-12-05T07:09:27;20.37;;;13.30;;
305;SDS011;137;48.578;9.180;2022-12-05T07:12:09;15.60;;;11.50;;
305;SDS011;137;48.578;9.180;2022-12-05T07:14:36;15.50;;;10.87;;
305;SDS011;137;48.578;9.180;2022-12-05T07:17:03;15.47;;;10.07;;
305;SDS011;137;48.578;9.180;2022-12-05T07:19:31;14.40;;;11.93;;
305;SDS011;137;48.578;9.180;2022-12-05T07:21:58;18.30;;;11.30;;
305;SDS011;137;48.578;9.180;2022-12-05T07:24:24;28.80;;;18.33;;
305;SDS011;137;48.578;9.180;2022-12-05T07:26:51;29.80;;;17.73;;
305;SDS011;137;48.578;9.180;2022-12-05T07:29:18;16.80;;;13.63;;
305;SDS011;137;48.578;9.180;2022-12-05T07:31:45;21.00;;;15.30;;
305;SDS011;137;48.578;9.180;2022-12-05T07:34:12;19.17;;;12.30;;
305;SDS011;137;48.578;9.180;2022-12-05T07:36:40;20.50;;;12.10;;
305;SDS011;137;48.578;9.180;2022-12-05T07:39:08;20.10;;;11.57;;
305;SDS011;137;48.578;9.180;2022-12-05T07:41:34;17.53;;;11.10;;
305;SDS011;137;48.578;9.180;2022-12-05T07:44:02;14.07;;;9.57;;
305;SDS011;137;48.578;9.180;2022-12-05T07:46:29;12.43;;;9.67;;
305;SDS011;137;48.578;9.180;2022-12-05T07:48:55;13.70;;;9.60;;
305;SDS011;137;48.578;9.180;2022-12-05T07:51:22;11.80;;;8.37;;
305;SDS011;137;48.578;9.180;2022-12-05T07:53:51;11.73;;;9.40;;
305;SDS011;137;48.578;9.180;2022-12-05T07:56:17;12.37;;;9.30;;
305;SDS011;137;48.578;9.180;2022-12-05T07:58:46;13.17;;;9.20;;
305;SDS011;137;48.578;9.180;2022-12-05T08:01:14;9.70;;;8.27;;
305;SDS011;137;48.578;9.180;2022-12-05T08:03:42;12.73;;;9.97;;
305;SDS011;137;48.578;9.180;2022-12-05T08:06:10;13.43;;;9.73;;
305;SDS011;137;48.578;9.180;2022-12-05T08:08:39;13.50;;;9.80;;
305;SDS011;137;48.578;9.180;2022-12-05T08:11:08;12.07;;;9.27;;
305;SDS011;137;48.578;9.180;2022-12-05T08:13:37;16.33;;;8.17;;
305;SDS011;137;48.578;9.180;2022-12-05T08:16:05;14.10;;;8.73;;
305;SDS011;137;48.578;9.180;2022-12-05T08:18:34;11.10;;;7.17;;
305;SDS011;137;48.578;9.180;2022-12-05T08:21:01;8.57;;;7.37;;
305;SDS011;137;48.578;9.180;2022-12-05T08:23:28;11.10;;;7.70;;
305;SDS011;137;48.578;9.180;2022-12-05T08:25:55;10.27;;;8.17;;
305;SDS011;137;48.578;9.180;2022-12-05T08:28:28;9.50;;;7.03;;
305;SDS011;137;48.578;9.180;2022-12-05T08:30:55;11.17;;;7.90;;
305;SDS011;137;48.578;9.180;2022-12-05T08:33:21;8.70;;;6.43;;
305;SDS011;137;48.578;9.180;2022-12-05T08:35:48;9.60;;;7.40;;
305;SDS011;137;48.578;9.180;2022-12-05T08:38:15;9.27;;;7.17;;
305;SDS011;137;48.578;9.180;2022-12-05T08:40:42;9.70;;;7.77;;
305;SDS011;137;48.578;9.180;2022-12-05T08:43:11;12.53;;;7.10;;
305;SDS011;137;48.578;9.180;2022-12-05T08:45:39;10.97;;;7.43;;
305;SDS011;137;48.578;9.180;2022-12-05T08:48:06;10.73;;;8.13;;
305;SDS011;137;48.578;9.180;2022-12-05T08:50:33;10.03;;;6.37;;
305;SDS011;137;48.578;9.180;2022-12-05T08:53:00;8.37;;;7.30;;
305;SDS011;137;48.578;9.180;2022-12-05T08:55:26;6.33;;;4.80;;
305;SDS011;137;48.578;9.180;2022-12-05T08:57:53;4.70;;;4.27;;
305;SDS011;137;48.578;9.180;2022-12-05T09:00:20;9.40;;;6.27;;
305;SDS011;137;48.578;9.180;2022-12-05T09:02:50;8.40;;;6.30;;
305;SDS011;137;48.578;9.180;2022-12-05T09:05:16;6.67;;;5.40;;
305;SDS011;137;48.578;9.180;2022-12-05T09:07:43;5.97;;;5.43;;
305;SDS011;137;48.578;9.180;2022-12-05T09:10:10;9.80;;;6.57;;
305;SDS011;137;48.578;9.180;2022-12-05T09:12:37;7.17;;;5.30;;
305;SDS011;137;48.578;9.180;2022-12-05T09:15:05;6.63;;;4.87;;
305;SDS011;137;48.578;9.180;2022-12-05T09:17:33;6.00;;;4.93;;
305;SDS011;137;48.578;9.180;2022-12-05T09:20:02;6.77;;;5.97;;
305;SDS011;137;48.578;9.180;2022-12-05T09:22:30;8.40;;;5.03;;
305;SDS011;137;48.578;9.180;2022-12-05T09:24:56;6.43;;;5.50;;
305;SDS011;137;48.578;9.180;2022-12-05T09:27:24;6.87;;;4.47;;
305;SDS011;137;48.578;9.180;2022-12-05T09:29:52;5.30;;;4.53;;
305;SDS011;137;48.578;9.180;2022-12-05T09:32:19;5.90;;;5.30;;
305;SDS011;137;48.578;9.180;2022-12-05T09:34:46;5.27;;;4.77;;
305;SDS011;137;48.578;9.180;2022-12-05T09:37:14;9.80;;;8.27;;
305;SDS011;137;48.578;9.180;2022-12-05T09:39:42;7.87;;;7.07;;
305;SDS011;137;48.578;9.180;2022-12-05T09:42:22;6.53;;;5.93;;
305;SDS011;137;48.578;9.180;2022-12-05T09:45:14;7.10;;;5.43;;
305;SDS011;137;48.578;9.180;2022-12-05T09:47:50;5.83;;;5.13;;
305;SDS011;137;48.578;9.180;2022-12-05T09:50:23;7.10;;;5.57;;
305;SDS011;137;48.578;9.180;2022-12-05T09:52:57;9.40;;;7.25;;
305;SDS011;137;48.578;9.180;2022-12-05T09:55:46;9.30;;;5.93;;
305;SDS011;137;48.578;9.180;2022-12-05T09:58:26;8.20;;;7.40;;
305;SDS011;137;48.578;9.180;2022-12-05T10:01:07;5.57;;;5.00;;
305;SDS011;137;48.578;9.180;2022-12-05T10:03:47;6.00;;;5.10;;
305;SDS011;137;48.578;9.180;2022-12-05T10:06:28;6.40;;;5.50;;
305;SDS011;137;48.578;9.180;2022-12-05T10:09:07;6.20;;;5.00;;
305;SDS011;137;48.578;9.180;2022-12-05T10:11:45;5.77;;;4.43;;
305;SDS011;137;48.578;9.180;2022-12-05T10:14:18;5.33;;;4.33;;
305;SDS011;137;48.578;9.180;2022-12-05T10:16:54;4.07;;;3.70;;
305;SDS011;137;48.578;9.180;2022-12-05T10:19:24;6.63;;;4.73;;
305;SDS011;137;48.578;9.180;2022-12-05T10:21:55;7.40;;;5.70;;
305;SDS011;137;48.578;9.180;2022-12-05T10:24:28;6.63;;;5.80;;
305;SDS011;137;48.578;9.180;2022-12-05T10:26:58;6.00;;;4.80;;
305;SDS011;137;48.578;9.180;2022-12-05T10:29:28;7.57;;;5.33;;
305;SDS011;137;48.578;9.180;2022-12-05T10:32:01;7.00;;;5.87;;
305;SDS011;137;48.578;9.180;2022-12-05T10:34:33;8.10;;;5.77;;
305;SDS011;137;48.578;9.180;2022-12-05T10:37:07;6.00;;;4.87;;
305;SDS011;137;48.578;9.180;2022-12-05T10:39:38;5.57;;;4.60;;
305;SDS011;137;48.578;9.180;2022-12-05T10:42:08;6.33;;;4.63;;
305;SDS011;137;48.578;9.180;2022-12-05T10:44:40;4.97;;;4.40;;
305;SDS011;137;48.578;9.180;2022-12-05T10:47:07;4.20;;;3.40;;
305;SDS011;137;48.578;9.180;2022-12-05T10:49:35;4.43;;;4.03;;
305;SDS011;137;48.578;9.180;2022-12-05T10:52:03;4.33;;;3.70;;
305;SDS011;137;48.578;9.180;2022-12-05T10:54:31;5.23;;;4.10;;
305;SDS011;137;48.578;9.180;2022-12-05T10:57:19;6.60;;;4.63;;
305;SDS011;137;48.578;9.180;2022-12-05T10:59:48;7.57;;;4.90;;
305;SDS011;137;48.578;9.180;2022-12-05T11:02:18;6.47;;;5.10;;
305;SDS011;137;48.578;9.180;2022-12-05T11:04:48;4.63;;;3.90;;
305;SDS011;137;48.578;9.180;2022-12-05T11:07:22;4.13;;;3.40;;
305;SDS011;137;48.578;9.180;2022-12-05T11:09:51;3.83;;;3.43;;
305;SDS011;137;48.578;9.180;2022-12-05T11:12:20;9.40;;;3.37;;
305;SDS011;137;48.578;9.180;2022-12-05T11:14:55;3.20;;;2.90;;
305;SDS011;137;48.578;9.180;2022-12-05T11:17:25;3.40;;;2.97;;
305;SDS011;137;48.578;9.180;2022-12-05T11:19:55;4.00;;;3.37;;
305;SDS011;137;48.578;9.180;2022-12-05T11:22:29;6.03;;;5.03;;
305;SDS011;137;48.578;9.180;2022-12-05T11:24:57;4.93;;;4.43;;
305;SDS011;137;48.578;9.180;2022-12-05T11:27:26;5.50;;;4.13;;
305;SDS011;137;48.578;9.180;2022-12-05T11:29:56;6.20;;;5.00;;
305;SDS011;137;48.578;9.180;2022-12-05T11:32:26;5.43;;;4.60;;
305;SDS011;137;48.578;9.180;2022-12-05T11:34:55;5.00;;;3.50;;
305;SDS011;137;48.578;9.180;2022-12-05T11:37:31;4.17;;;3.67;;
305;SDS011;137;48.578;9.180;2022-12-05T11:40:02;6.33;;;4.90;;
305;SDS011;137;48.578;9.180;2022-12-05T11:42:42;5.27;;;4.77;;
305;SDS011;137;48.578;9.180;2022-12-05T11:45:38;4.33;;;3.93;;
305;SDS011;137;48.578;9.180;2022-12-05T11:48:20;4.13;;;3.73;;
305;SDS011;137;48.578;9.180;2022-12-05T11:51:06;3.80;;;3.50;;
305;SDS011;137;48.578;9.180;2022-12-05T11:53:50;8.93;;;4.20;;
305;SDS011;137;48.578;9.180;2022-12-05T11:56:40;4.17;;;3.50;;
305;SDS011;137;48.578;9.180;2022-12-05T12:02:07;4.50;;;4.10;;
305;SDS011;137;48.578;9.180;2022-12-05T12:04:49;6.33;;;5.07;;
305;SDS011;137;48.578;9.180;2022-12-05T12:07:24;4.23;;;3.83;;
305;SDS011;137;48.578;9.180;2022-12-05T12:10:06;3.93;;;3.60;;
305;SDS011;137;48.578;9.180;2022-12-05T12:12:44;4.47;;;4.07;;
305;SDS011;137;48.578;9.180;2022-12-05T12:15:28;5.10;;;4.60;;
305;SDS011;137;48.578;9.180;2022-12-05T12:18:11;5.13;;;4.27;;
305;SDS011;137;48.578;9.180;2022-12-05T12:20:51;6.17;;;3.97;;
305;SDS011;137;48.578;9.180;2022-12-05T12:23:37;3.70;;;3.30;;
305;SDS011;137;48.578;9.180;2022-12-05T12:26:14;5.60;;;3.77;;
305;SDS011;137;48.578;9.180;2022-12-05T12:28:50;5.03;;;2.47;;
305;SDS011;137;48.578;9.180;2022-12-05T12:31:41;4.40;;;3.00;;
305;SDS011;137;48.578;9.180;2022-12-05T12:34:33;2.90;;;2.33;;
305;SDS011;137;48.578;9.180;2022-12-05T12:37:15;2.70;;;2.50;;
305;SDS011;137;48.578;9.180;2022-12-05T12:39:51;2.83;;;2.27;;
305;SDS011;137;48.578;9.180;2022-12-05T12:42:23;3.23;;;2.27;;
305;SDS011;137;48.578;9.180;2022-12-05T12:44:57;3.37;;;2.70;;
305;SDS011;137;48.578;9.180;2022-12-05T12:47:43;2.80;;;2.33;;
305;SDS011;137;48.578;9.180;2022-12-05T12:50:20;5.23;;;2.37;;
305;SDS011;137;48.578;9.180;2022-12-05T12:53:02;6.43;;;3.63;;
305;SDS011;137;48.578;9.180;2022-12-05T12:55:43;3.40;;;2.80;;
305;SDS011;137;48.578;9.180;2022-12-05T12:58:19;3.03;;;2.77;;
305;SDS011;137;48.578;9.180;2022-12-05T13:00:59;5.20;;;3.10;;
305;SDS011;137;48.578;9.180;2022-12-05T13:03:33;7.60;;;2.60;;
305;SDS011;137;48.578;9.180;2022-12-05T13:06:07;3.60;;;2.90;;
305;SDS011;137;48.578;9.180;2022-12-05T13:08:40;2.87;;;2.33;;
305;SDS011;137;48.578;9.180;2022-12-05T13:11:11;4.63;;;2.80;;
305;SDS011;137;48.578;9.180;2022-12-05T13:13:41;3.50;;;2.90;;
305;SDS011;137;48.578;9.180;2022-12-05T13:16:12;6.40;;;3.17;;
305;SDS011;137;48.578;9.180;2022-12-05T13:18:48;3.67;;;2.57;;
305;SDS011;137;48.578;9.180;2022-12-05T13:21:15;2.67;;;2.23;;
305;SDS011;137;48.578;9.180;2022-12-05T13:23:44;3.07;;;2.47;;
305;SDS011;137;48.578;9.180;2022-12-05T13:26:13;2.67;;;2.10;;
305;SDS011;137;48.578;9.180;2022-12-05T13:28:46;3.03;;;2.03;;
305;SDS011;137;48.578;9.180;2022-12-05T13:31:15;2.47;;;2.17;;
305;SDS011;137;48.578;9.180;2022-12-05T13:33:44;3.37;;;2.37;;
305;SDS011;137;48.578;9.180;2022-12-05T13:36:14;2.60;;;2.30;;
305;SDS011;137;48.578;9.180;2022-12-05T13:39:00;3.20;;;2.20;;
305;SDS011;137;48.578;9.180;2022-12-05T13:41:47;2.40;;;2.20;;
305;SDS011;137;48.578;9.180;2022-12-05T13:44:35;2.50;;;2.00;;
305;SDS011;137;48.578;9.180;2022-12-05T13:47:05;4.20;;;1.93;;
305;SDS011;137;48.578;9.180;2022-12-05T13:49:45;2.80;;;1.80;;
305;SDS011;137;48.578;9.180;2022-12-05T13:52:18;2.00;;;1.70;;
305;SDS011;137;48.578;9.180;2022-12-05T13:54:49;3.37;;;1.83;;
305;SDS011;137;48.578;9.180;2022-12-05T14:00:20;3.00;;;2.10;;
305;SDS011;137;48.578;9.180;2022-12-05T14:02:50;2.57;;;2.37;;
305;SDS011;137;48.578;9.180;2022-12-05T14:11:19;2.93;;;2.50;;
305;SDS011;137;48.578;9.180;2022-12-05T14:13:46;3.80;;;2.60;;
305;SDS011;137;48.578;9.180;2022-12-05T14:19:26;4.50;;;2.10;;
305;SDS011;137;48.578;9.180;2022-12-05T14:22:08;3.00;;;2.25;;
305;SDS011;137;48.578;9.180;2022-12-05T14:24:50;3.10;;;2.30;;
305;SDS011;137;48.578;9.180;2022-12-05T14:27:23;2.00;;;1.80;;
305;SDS011;137;48.578;9.180;2022-12-05T14:30:10;2.60;;;2.40;;
305;SDS011;137;48.578;9.180;2022-12-05T14:32:44;2.10;;;1.90;;
305;SDS011;137;48.578;9.180;2022-12-05T14:35:13;1.77;;;1.30;;
305;SDS011;137;48.578;9.180;2022-12-05T14:37:42;1.80;;;1.37;;
305;SDS011;137;48.578;9.180;2022-12-05T14:40:19;1.90;;;1.20;;
305;SDS011;137;48.578;9.180;2022-12-05T14:42:50;1.70;;;1.50;;
305;SDS011;137;48.578;9.180;2022-12-05T14:45:25;1.80;;;1.40;;
305;SDS011;137;48.578;9.180;2022-12-05T14:47:54;1.83;;;1.40;;
305;SDS011;137;48.578;9.180;2022-12-05T14:50:33;2.40;;;1.40;;
305;SDS011;137;48.578;9.180;2022-12-05T14:53:16;1.40;;;1.20;;
305;SDS011;137;48.578;9.180;2022-12-05T14:56:14;1.80;;;1.40;;
305;SDS011;137;48.578;9.180;2022-12-05T14:58:45;2.47;;;1.57;;
305;SDS011;137;48.578;9.180;2022-12-05T15:01:16;1.53;;;1.30;;
305;SDS011;137;48.578;9.180;2022-12-05T15:06:45;1.57;;;1.13;;
305;SDS011;137;48.578;9.180;2022-12-05T15:09:30;1.40;;;1.23;;
305;SDS011;137;48.578;9.180;2022-12-05T15:12:24;1.30;;;1.20;;
305;SDS011;137;48.578;9.180;2022-12-05T15:14:56;1.50;;;1.07;;
305;SDS011;137;48.578;9.180;2022-12-05T15:17:29;3.27;;;1.10;;
305;SDS011;137;48.578;9.180;2022-12-05T15:20:03;1.37;;;1.20;;
305;SDS011;137;48.578;9.180;2022-12-05T15:22:34;1.33;;;1.13;;
305;SDS011;137;48.578;9.180;2022-12-05T15:25:19;1.40;;;1.23;;
305;SDS011;137;48.578;9.180;2022-12-05T15:27:54;1.63;;;1.20;;
305;SDS011;137;48.578;9.180;2022-12-05T15:30:22;3.57;;;1.30;;
305;SDS011;137;48.578;9.180;2022-12-05T15:32:50;2.00;;;1.37;;
305;SDS011;137;48.578;9.180;2022-12-05T15:35:17;1.87;;;1.10;;
305;SDS011;137;48.578;9.180;2022-12-05T15:37:45;1.70;;;1.40;;
305;SDS011;137;48.578;9.180;2022-12-05T15:40:17;1.40;;;1.20;;
305;SDS011;137;48.578;9.180;2022-12-05T15:42:47;4.03;;;1.90;;
305;SDS011;137;48.578;9.180;2022-12-05T15:45:20;1.40;;;1.13;;
305;SDS011;137;48.578;9.180;2022-12-05T15:47:49;1.53;;;1.30;;
305;SDS011;137;48.578;9.180;2022-12-05T15:50:20;2.17;;;1.40;;
305;SDS011;137;48.578;9.180;2022-12-05T15:52:52;2.10;;;1.27;;
305;SDS011;137;48.578;9.180;2022-12-05T15:55:23;1.87;;;1.60;;
305;SDS011;137;48.578;9.180;2022-12-05T15:57:56;9.97;;;3.70;;
305;SDS011;137;48.578;9.180;2022-12-05T16:00:29;2.17;;;1.70;;
305;SDS011;137;48.578;9.180;2022-12-05T16:02:59;2.23;;;2.03;;
305;SDS011;137;48.578;9.180;2022-12-05T16:05:32;2.73;;;2.00;;
305;SDS011;137;48.578;9.180;2022-12-05T16:08:04;2.60;;;2.03;;
305;SDS011;137;48.578;9.180;2022-12-05T16:10:32;14.33;;;7.20;;
305;SDS011;137;48.578;9.180;2022-12-05T16:13:01;3.30;;;3.00;;
305;SDS011;137;48.578;9.180;2022-12-05T16:15:31;4.47;;;4.00;;
305;SDS011;137;48.578;9.180;2022-12-05T16:18:00;3.47;;;3.17;;
305;SDS011;137;48.578;9.180;2022-12-05T16:20:29;11.50;;;8.07;;
305;SDS011;137;48.578;9.180;2022-12-05T16:22:57;3.53;;;2.40;;